sensor_id;sensor_type;location;lat;lon;timestamp;pressure;altitude;pressure_sealevel;temperature;humidity
72959;BME280;60008;50.826;6.896;2022-12-18T00:01:38;102301.38;;;-7.40;100.00
72959;BME280;60008;50.826;6.896;2022-12-18T00:04:24;102308.19;;;-7.31;100.00
72959;BME280;60008;50.826;6.896;2022-12-18T00:07:09;102303.88;;;-7.26;100.00
72959;BME280;60008;50.826;6.896;2022-12-18T00:09:54;102304.63;;;-7.13;100.00
72959;BME280;60008;50.826;6.896;2022-12-18T00:12:39;102298.69;;;-7.25;100.00
72959;BME280;60008;50.826;6.896;2022-12-18T00:15:25;102310.78;;;-7.39;100.00
72959;BME280;60008;50.826;6.896;2022-12-18T00:18:10;102304.88;;;-7.48;100.00
72959;BME280;60008;50.826;6.896;2022-12-18T00:21:01;102301.41;;;-7.43;100.00
72959;BME280;60008;50.826;6.896;2022-12-18T00:23:48;102311.72;;;-7.46;100.00
72959;BME280;60008;50.826;6.896;2022-12-18T00:26:36;102317.69;;;-7.41;100.00
72959;BME280;60008;50.826;6.896;2022-12-18T00:29:22;102321.16;;;-7.45;100.00
72959;BME280;60008;50.826;6.896;2022-12-18T00:32:07;102321.16;;;-7.45;100.00
72959;BME280;60008;50.826;6.896;2022-12-18T00:34:52;102328.84;;;-7.40;100.00
72959;BME280;60008;50.826;6.896;2022-12-18T00:37:37;102322.75;;;-7.30;100.00
72959;BME280;60008;50.826;6.896;2022-12-18T00:40:22;102318.44;;;-7.28;100.00
72959;BME280;60008;50.826;6.896;2022-12-18T00:43:07;102317.63;;;-7.29;100.00
72959;BME280;60008;50.826;6.896;2022-12-18T00:45:54;102322.00;;;-7.43;100.00
72959;BME280;60008;50.826;6.896;2022-12-18T00:48:39;102318.63;;;-7.54;100.00
72959;BME280;60008;50.826;6.896;2022-12-18T00:51:24;102315.25;;;-7.68;100.00
72959;BME280;60008;50.826;6.896;2022-12-18T00:54:09;102314.44;;;-7.76;100.00
72959;BME280;60008;50.826;6.896;2022-12-18T00:56:54;102317.84;;;-7.74;100.00
72959;BME280;60008;50.826;6.896;2022-12-18T00:59:40;102318.66;;;-7.69;100.00
72959;BME280;60008;50.826;6.896;2022-12-18T01:02:25;102313.53;;;-7.64;100.00
72959;BME280;60008;50.826;6.896;2022-12-18T01:05:12;102311.78;;;-7.59;100.00
72959;BME280;60008;50.826;6.896;2022-12-18T01:07:57;102304.84;;;-7.50;100.00
72959;BME280;60008;50.826;6.896;2022-12-18T01:10:43;102311.72;;;-7.46;100.00
72959;BME280;60008;50.826;6.896;2022-12-18T01:13:28;102316.00;;;-7.45;100.00
72959;BME280;60008;50.826;6.896;2022-12-18T01:16:16;102308.34;;;-7.57;100.00
72959;BME280;60008;50.826;6.896;2022-12-18T01:19:01;102303.97;;;-7.47;100.00
72959;BME280;60008;50.826;6.896;2022-12-18T01:21:46;102303.19;;;-7.54;100.00
72959;BME280;60008;50.826;6.896;2022-12-18T01:24:31;102314.34;;;-7.58;100.00
72959;BME280;60008;50.826;6.896;2022-12-18T01:27:17;102308.41;;;-7.67;100.00
72959;BME280;60008;50.826;6.896;2022-12-18T01:30:02;102312.69;;;-7.69;100.00
72959;BME280;60008;50.826;6.896;2022-12-18T01:32:47;102304.94;;;-7.62;100.00
72959;BME280;60008;50.826;6.896;2022-12-18T01:35:32;102303.25;;;-7.70;100.00
72959;BME280;60008;50.826;6.896;2022-12-18T01:38:17;102296.44;;;-7.80;100.00
72959;BME280;60008;50.826;6.896;2022-12-18T01:41:02;102296.41;;;-7.76;100.00
72959;BME280;60008;50.826;6.896;2022-12-18T01:43:56;102295.56;;;-7.76;100.00
72959;BME280;60008;50.826;6.896;2022-12-18T01:46:43;102305.88;;;-7.78;100.00
72959;BME280;60008;50.826;6.896;2022-12-18T01:49:29;102311.81;;;-7.71;100.00
72959;BME280;60008;50.826;6.896;2022-12-18T01:52:14;102316.13;;;-7.76;100.00
72959;BME280;60008;50.826;6.896;2022-12-18T01:55:02;102311.00;;;-7.75;100.00
72959;BME280;60008;50.826;6.896;2022-12-18T01:57:49;102309.28;;;-7.74;100.00
72959;BME280;60008;50.826;6.896;2022-12-18T02:00:36;102305.00;;;-7.78;100.00
72959;BME280;60008;50.826;6.896;2022-12-18T02:03:21;102298.16;;;-7.78;100.00
72959;BME280;60008;50.826;6.896;2022-12-18T02:06:28;102299.03;;;-7.80;100.00
72959;BME280;60008;50.826;6.896;2022-12-18T02:09:22;102294.69;;;-7.77;100.00
72959;BME280;60008;50.826;6.896;2022-12-18T02:12:19;102293.91;;;-7.90;100.00
72959;BME280;60008;50.826;6.896;2022-12-18T02:15:17;102287.03;;;-7.91;100.00
72959;BME280;60008;50.826;6.896;2022-12-18T02:18:11;102299.91;;;-7.88;100.00
72959;BME280;60008;50.826;6.896;2022-12-18T02:21:05;102291.31;;;-7.85;100.00
72959;BME280;60008;50.826;6.896;2022-12-18T02:27:37;102299.09;;;-7.97;100.00
72959;BME280;60008;50.826;6.896;2022-12-18T02:30:24;102292.25;;;-8.00;100.00
72959;BME280;60008;50.826;6.896;2022-12-18T02:33:11;102294.84;;;-8.06;100.00
72959;BME280;60008;50.826;6.896;2022-12-18T02:35:58;102291.38;;;-8.03;100.00
72959;BME280;60008;50.826;6.896;2022-12-18T02:38:45;102286.25;;;-8.06;100.00
72959;BME280;60008;50.826;6.896;2022-12-18T02:41:31;102299.09;;;-7.97;100.00
72959;BME280;60008;50.826;6.896;2022-12-18T02:44:16;102297.34;;;-7.95;100.00
72959;BME280;60008;50.826;6.896;2022-12-18T02:47:01;102299.09;;;-8.03;100.00
72959;BME280;60008;50.826;6.896;2022-12-18T02:50:30;102293.13;;;-8.08;100.00
72959;BME280;60008;50.826;6.896;2022-12-18T02:53:28;102297.34;;;-7.89;100.00
72959;BME280;60008;50.826;6.896;2022-12-18T02:56:21;102286.22;;;-7.97;100.00
72959;BME280;60008;50.826;6.896;2022-12-18T02:59:17;102279.34;;;-7.95;100.00
72959;BME280;60008;50.826;6.896;2022-12-18T03:02:21;102287.06;;;-7.95;100.00
72959;BME280;60008;50.826;6.896;2022-12-18T03:05:16;102298.25;;;-8.05;100.00
72959;BME280;60008;50.826;6.896;2022-12-18T03:11:01;102293.13;;;-8.10;100.00
72959;BME280;60008;50.826;6.896;2022-12-18T03:13:54;102287.97;;;-8.07;100.00
72959;BME280;60008;50.826;6.896;2022-12-18T03:16:41;102284.50;;;-7.98;100.00
72959;BME280;60008;50.826;6.896;2022-12-18T03:19:28;102276.78;;;-7.98;100.00
72959;BME280;60008;50.826;6.896;2022-12-18T03:22:15;102267.41;;;-8.02;100.00
72959;BME280;60008;50.826;6.896;2022-12-18T03:25:03;102264.00;;;-8.10;100.00
72959;BME280;60008;50.826;6.896;2022-12-18T03:27:54;102252.97;;;-8.29;100.00
72959;BME280;60008;50.826;6.896;2022-12-18T03:30:43;102259.81;;;-8.32;100.00
72959;BME280;60008;50.826;6.896;2022-12-18T03:33:35;102259.84;;;-8.37;100.00
72959;BME280;60008;50.826;6.896;2022-12-18T03:36:22;102253.81;;;-8.36;100.00
72959;BME280;60008;50.826;6.896;2022-12-18T03:39:08;102262.31;;;-8.20;100.00
72959;BME280;60008;50.826;6.896;2022-12-18T03:42:18;102265.69;;;-8.03;100.00
72959;BME280;60008;50.826;6.896;2022-12-18T03:45:10;102269.06;;;-7.94;100.00
72959;BME280;60008;50.826;6.896;2022-12-18T03:48:04;102260.50;;;-7.94;100.00
72959;BME280;60008;50.826;6.896;2022-12-18T03:51:06;102254.47;;;-7.89;100.00
72959;BME280;60008;50.826;6.896;2022-12-18T03:54:02;102246.69;;;-7.82;100.00
72959;BME280;60008;50.826;6.896;2022-12-18T03:57:01;102244.97;;;-7.79;100.00
72959;BME280;60008;50.826;6.896;2022-12-18T03:59:54;102250.78;;;-7.42;100.00
72959;BME280;60008;50.826;6.896;2022-12-18T04:02:46;102248.19;;;-7.41;100.00
72959;BME280;60008;50.826;6.896;2022-12-18T04:05:33;102250.59;;;-7.22;100.00
72959;BME280;60008;50.826;6.896;2022-12-18T04:08:20;102248.00;;;-7.15;100.00
72959;BME280;60008;50.826;6.896;2022-12-18T04:11:06;102236.81;;;-7.12;100.00
72959;BME280;60008;50.826;6.896;2022-12-18T04:13:55;102239.34;;;-7.08;100.00
72959;BME280;60008;50.826;6.896;2022-12-18T04:16:41;102234.16;;;-7.05;100.00
72959;BME280;60008;50.826;6.896;2022-12-18T04:19:26;102234.19;;;-7.08;100.00
72959;BME280;60008;50.826;6.896;2022-12-18T04:22:11;102235.91;;;-7.07;100.00
72959;BME280;60008;50.826;6.896;2022-12-18T04:24:57;102234.13;;;-7.00;100.00
72959;BME280;60008;50.826;6.896;2022-12-18T04:27:42;102234.13;;;-7.00;100.00
72959;BME280;60008;50.826;6.896;2022-12-18T04:30:27;102237.56;;;-7.00;100.00
72959;BME280;60008;50.826;6.896;2022-12-18T04:33:13;102246.16;;;-7.01;100.00
72959;BME280;60008;50.826;6.896;2022-12-18T04:35:58;102233.31;;;-7.04;100.00
72959;BME280;60008;50.826;6.896;2022-12-18T04:38:43;102229.78;;;-6.95;100.00
72959;BME280;60008;50.826;6.896;2022-12-18T04:41:28;102226.41;;;-7.00;100.00
72959;BME280;60008;50.826;6.896;2022-12-18T04:44:13;102232.38;;;-6.97;100.00
72959;BME280;60008;50.826;6.896;2022-12-18T04:46:58;102223.78;;;-6.97;100.00
72959;BME280;60008;50.826;6.896;2022-12-18T04:49:43;102223.78;;;-6.97;100.00
72959;BME280;60008;50.826;6.896;2022-12-18T04:52:31;102225.53;;;-6.99;100.00
72959;BME280;60008;50.826;6.896;2022-12-18T04:55:17;102228.09;;;-6.98;100.00
72959;BME280;60008;50.826;6.896;2022-12-18T04:58:02;102220.34;;;-6.98;100.00
72959;BME280;60008;50.826;6.896;2022-12-18T05:00:47;102220.38;;;-6.99;100.00
72959;BME280;60008;50.826;6.896;2022-12-18T05:03:32;102216.09;;;-6.99;100.00
72959;BME280;60008;50.826;6.896;2022-12-18T05:06:17;102216.09;;;-6.99;100.00
72959;BME280;60008;50.826;6.896;2022-12-18T05:09:02;102213.50;;;-6.97;100.00
72959;BME280;60008;50.826;6.896;2022-12-18T05:11:48;102207.44;;;-6.95;100.00
72959;BME280;60008;50.826;6.896;2022-12-18T05:14:33;102210.00;;;-6.92;100.00
72959;BME280;60008;50.826;6.896;2022-12-18T05:17:18;102204.84;;;-6.90;100.00
72959;BME280;60008;50.826;6.896;2022-12-18T05:20:03;102200.53;;;-6.90;100.00
72959;BME280;60008;50.826;6.896;2022-12-18T05:22:49;102195.28;;;-6.79;100.00
72959;BME280;60008;50.826;6.896;2022-12-18T05:25:34;102208.09;;;-6.73;100.00
72959;BME280;60008;50.826;6.896;2022-12-18T05:28:19;102208.16;;;-6.78;100.00
72959;BME280;60008;50.826;6.896;2022-12-18T05:31:05;102206.41;;;-6.76;100.00
72959;BME280;60008;50.826;6.896;2022-12-18T05:33:50;102216.78;;;-6.80;100.00
72959;BME280;60008;50.826;6.896;2022-12-18T05:36:35;102219.28;;;-6.74;100.00
72959;BME280;60008;50.826;6.896;2022-12-18T05:39:21;102221.94;;;-6.80;100.00
72959;BME280;60008;50.826;6.896;2022-12-18T05:42:05;102228.75;;;-6.76;100.00
72959;BME280;60008;50.826;6.896;2022-12-18T05:44:50;102229.59;;;-6.76;100.00
72959;BME280;60008;50.826;6.896;2022-12-18T05:47:35;102237.28;;;-6.71;100.00
72959;BME280;60008;50.826;6.896;2022-12-18T05:50:21;102239.00;;;-6.69;100.00
72959;BME280;60008;50.826;6.896;2022-12-18T05:53:06;102240.69;;;-6.68;100.00
72959;BME280;60008;50.826;6.896;2022-12-18T05:55:51;102247.59;;;-6.71;100.00
72959;BME280;60008;50.826;6.896;2022-12-18T05:58:37;102252.81;;;-6.77;100.00
72959;BME280;60008;50.826;6.896;2022-12-18T06:01:24;102259.69;;;-6.78;100.00
72959;BME280;60008;50.826;6.896;2022-12-18T06:04:10;102269.97;;;-6.76;100.00
72959;BME280;60008;50.826;6.896;2022-12-18T06:06:55;102258.84;;;-6.81;100.00
72959;BME280;60008;50.826;6.896;2022-12-18T06:09:40;102267.44;;;-6.78;100.00
72959;BME280;60008;50.826;6.896;2022-12-18T06:12:25;102272.63;;;-6.84;100.00
72959;BME280;60008;50.826;6.896;2022-12-18T06:15:10;102276.91;;;-6.81;100.00
72959;BME280;60008;50.826;6.896;2022-12-18T06:17:55;102270.03;;;-6.81;100.00
72959;BME280;60008;50.826;6.896;2022-12-18T06:20:40;102271.78;;;-6.86;100.00
72959;BME280;60008;50.826;6.896;2022-12-18T06:23:26;102271.75;;;-6.81;100.00
72959;BME280;60008;50.826;6.896;2022-12-18T06:26:12;102273.44;;;-6.79;100.00
72959;BME280;60008;50.826;6.896;2022-12-18T06:28:58;102269.16;;;-6.80;100.00
72959;BME280;60008;50.826;6.896;2022-12-18T06:31:43;102268.22;;;-6.73;100.00
72959;BME280;60008;50.826;6.896;2022-12-18T06:34:28;102274.28;;;-6.75;100.00
72959;BME280;60008;50.826;6.896;2022-12-18T06:37:13;102273.34;;;-6.67;100.00
72959;BME280;60008;50.826;6.896;2022-12-18T06:39:58;102263.91;;;-6.71;100.00
72959;BME280;60008;50.826;6.896;2022-12-18T06:42:43;102269.06;;;-6.71;100.00
72959;BME280;60008;50.826;6.896;2022-12-18T06:45:28;102269.09;;;-6.72;100.00
72959;BME280;60008;50.826;6.896;2022-12-18T06:48:13;102264.72;;;-6.64;100.00
72959;BME280;60008;50.826;6.896;2022-12-18T06:50:58;102267.28;;;-6.61;100.00
72959;BME280;60008;50.826;6.896;2022-12-18T06:53:44;102263.78;;;-6.57;100.00
72959;BME280;60008;50.826;6.896;2022-12-18T06:56:29;102262.88;;;-6.54;100.00
72959;BME280;60008;50.826;6.896;2022-12-18T06:59:14;102261.16;;;-6.54;100.00
72959;BME280;60008;50.826;6.896;2022-12-18T07:02:00;102250.88;;;-6.55;100.00
72959;BME280;60008;50.826;6.896;2022-12-18T07:04:45;102256.84;;;-6.52;100.00
72959;BME280;60008;50.826;6.896;2022-12-18T07:07:30;102248.28;;;-6.54;100.00
72959;BME280;60008;50.826;6.896;2022-12-18T07:10:15;102250.78;;;-6.46;100.00
72959;BME280;60008;50.826;6.896;2022-12-18T07:13:00;102251.56;;;-6.40;100.00
72959;BME280;60008;50.826;6.896;2022-12-18T07:15:45;102257.59;;;-6.41;100.00
72959;BME280;60008;50.826;6.896;2022-12-18T07:18:30;102268.78;;;-6.39;100.00
72959;BME280;60008;50.826;6.896;2022-12-18T07:21:18;102254.84;;;-6.24;100.00
72959;BME280;60008;50.826;6.896;2022-12-18T07:24:04;102260.00;;;-6.24;100.00
72959;BME280;60008;50.826;6.896;2022-12-18T07:26:49;102251.47;;;-6.28;100.00
72959;BME280;60008;50.826;6.896;2022-12-18T07:29:34;102259.13;;;-6.25;100.00
72959;BME280;60008;50.826;6.896;2022-12-18T07:32:19;102246.22;;;-6.23;100.00
72959;BME280;60008;50.826;6.896;2022-12-18T07:35:04;102245.28;;;-6.16;100.00
72959;BME280;60008;50.826;6.896;2022-12-18T07:37:49;102238.44;;;-6.17;100.00
72959;BME280;60008;50.826;6.896;2022-12-18T07:40:34;102237.59;;;-6.21;100.00
72959;BME280;60008;50.826;6.896;2022-12-18T07:43:19;102241.81;;;-6.12;100.00
72959;BME280;60008;50.826;6.896;2022-12-18T07:46:05;102245.25;;;-6.13;100.00
72959;BME280;60008;50.826;6.896;2022-12-18T07:48:50;102252.06;;;-6.06;100.00
72959;BME280;60008;50.826;6.896;2022-12-18T07:51:35;102258.16;;;-6.12;100.00
72959;BME280;60008;50.826;6.896;2022-12-18T07:54:20;102257.19;;;-6.05;100.00
72959;BME280;60008;50.826;6.896;2022-12-18T07:57:06;102259.72;;;-6.03;100.00
72959;BME280;60008;50.826;6.896;2022-12-18T08:00:11;102247.66;;;-5.99;100.00
72959;BME280;60008;50.826;6.896;2022-12-18T08:02:57;102245.03;;;-5.96;100.00
72959;BME280;60008;50.826;6.896;2022-12-18T08:05:43;102236.47;;;-5.98;100.00
72959;BME280;60008;50.826;6.896;2022-12-18T08:08:28;102240.66;;;-5.91;100.00
72959;BME280;60008;50.826;6.896;2022-12-18T08:11:14;102229.53;;;-5.93;100.00
72959;BME280;60008;50.826;6.896;2022-12-18T08:13:59;102226.91;;;-5.90;100.00
72959;BME280;60008;50.826;6.896;2022-12-18T08:16:44;102214.94;;;-5.96;100.00
72959;BME280;60008;50.826;6.896;2022-12-18T08:19:29;102215.66;;;-5.86;100.00
72959;BME280;60008;50.826;6.896;2022-12-18T08:22:14;102207.78;;;-5.79;100.00
72959;BME280;60008;50.826;6.896;2022-12-18T08:24:59;102196.75;;;-5.88;100.00
72959;BME280;60008;50.826;6.896;2022-12-18T08:27:44;102191.44;;;-5.79;100.00
72959;BME280;60008;50.826;6.896;2022-12-18T08:30:29;102204.25;;;-5.72;100.00
72959;BME280;60008;50.826;6.896;2022-12-18T08:33:14;102199.97;;;-5.74;100.00
72959;BME280;60008;50.826;6.896;2022-12-18T08:36:00;102186.00;;;-5.61;100.00
72959;BME280;60008;50.826;6.896;2022-12-18T08:38:46;102181.50;;;-5.49;100.00
72959;BME280;60008;50.826;6.896;2022-12-18T08:41:31;102176.28;;;-5.44;100.00
72959;BME280;60008;50.826;6.896;2022-12-18T08:44:16;102180.63;;;-5.48;100.00
72959;BME280;60008;50.826;6.896;2022-12-18T08:47:19;102186.53;;;-5.39;100.00
72959;BME280;60008;50.826;6.896;2022-12-18T08:50:05;102181.22;;;-5.30;100.00
72959;BME280;60008;50.826;6.896;2022-12-18T08:52:51;102191.38;;;-5.21;100.00
72959;BME280;60008;50.826;6.896;2022-12-18T08:55:36;102185.97;;;-5.06;100.00
72959;BME280;60008;50.826;6.896;2022-12-18T08:58:21;102173.91;;;-5.06;100.00
72959;BME280;60008;50.826;6.896;2022-12-18T09:01:09;102172.09;;;-5.02;100.00
72959;BME280;60008;50.826;6.896;2022-12-18T09:03:54;102176.19;;;-4.89;100.00
72959;BME280;60008;50.826;6.896;2022-12-18T09:06:39;102168.25;;;-4.80;100.00
72959;BME280;60008;50.826;6.896;2022-12-18T09:09:24;102165.59;;;-4.75;100.00
72959;BME280;60008;50.826;6.896;2022-12-18T09:12:09;102167.44;;;-4.82;100.00
72959;BME280;60008;50.826;6.896;2022-12-18T09:14:54;102168.22;;;-4.77;100.00
72959;BME280;60008;50.826;6.896;2022-12-18T09:17:40;102173.94;;;-4.61;100.00
72959;BME280;60008;50.826;6.896;2022-12-18T09:20:26;102173.41;;;-4.78;100.00
72959;BME280;60008;50.826;6.896;2022-12-18T09:23:13;102177.53;;;-4.68;100.00
72959;BME280;60008;50.826;6.896;2022-12-18T09:25:59;102169.78;;;-4.68;100.00
72959;BME280;60008;50.826;6.896;2022-12-18T09:28:44;102169.53;;;-4.56;100.00
72959;BME280;60008;50.826;6.896;2022-12-18T09:31:29;102156.47;;;-4.49;100.00
72959;BME280;60008;50.826;6.896;2022-12-18T09:34:15;102152.34;;;-4.17;100.00
72959;BME280;60008;50.826;6.896;2022-12-18T09:37:00;102138.41;;;-4.10;100.00
72959;BME280;60008;50.826;6.896;2022-12-18T09:39:45;102143.34;;;-4.00;100.00
72959;BME280;60008;50.826;6.896;2022-12-18T09:42:31;102142.75;;;-4.12;100.00
72959;BME280;60008;50.826;6.896;2022-12-18T09:45:17;102141.00;;;-4.10;100.00
72959;BME280;60008;50.826;6.896;2022-12-18T09:48:03;102131.06;;;-3.92;100.00
72959;BME280;60008;50.826;6.896;2022-12-18T09:50:51;102125.84;;;-3.90;100.00
72959;BME280;60008;50.826;6.896;2022-12-18T09:53:41;102111.78;;;-3.80;100.00
72959;BME280;60008;50.826;6.896;2022-12-18T09:56:28;102113.69;;;-3.51;100.00
72959;BME280;60008;50.826;6.896;2022-12-18T09:59:36;102105.19;;;-3.56;100.00
72959;BME280;60008;50.826;6.896;2022-12-18T10:02:24;102118.31;;;-3.64;100.00
72959;BME280;60008;50.826;6.896;2022-12-18T10:05:17;102113.84;;;-3.57;100.00
72959;BME280;60008;50.826;6.896;2022-12-18T10:08:17;102103.25;;;-3.48;100.00
72959;BME280;60008;50.826;6.896;2022-12-18T10:11:21;102093.63;;;-3.43;100.00
72959;BME280;60008;50.826;6.896;2022-12-18T10:14:42;102099.25;;;-3.26;100.00
72959;BME280;60008;50.826;6.896;2022-12-18T10:17:41;102100.50;;;-3.42;100.00
72959;BME280;60008;50.826;6.896;2022-12-18T10:20:49;102106.75;;;-3.16;100.00
72959;BME280;60008;50.826;6.896;2022-12-18T10:26:36;102096.16;;;-3.08;100.00
72959;BME280;60008;50.826;6.896;2022-12-18T10:29:21;102104.22;;;-2.86;100.00
72959;BME280;60008;50.826;6.896;2022-12-18T10:32:12;102103.44;;;-2.90;100.00
72959;BME280;60008;50.826;6.896;2022-12-18T10:34:59;102103.78;;;-2.71;100.00
72959;BME280;60008;50.826;6.896;2022-12-18T10:38:03;102089.81;;;-2.96;100.00
72959;BME280;60008;50.826;6.896;2022-12-18T10:43:41;102083.66;;;-2.63;100.00
72959;BME280;60008;50.826;6.896;2022-12-18T10:46:26;102083.47;;;-2.57;100.00
72959;BME280;60008;50.826;6.896;2022-12-18T10:49:27;102080.72;;;-2.82;100.00
72959;BME280;60008;50.826;6.896;2022-12-18T10:52:21;102076.69;;;-2.92;100.00
72959;BME280;60008;50.826;6.896;2022-12-18T10:55:16;102062.22;;;-2.99;100.00
72959;BME280;60008;50.826;6.896;2022-12-18T10:58:34;102060.91;;;-2.84;100.00
72959;BME280;60008;50.826;6.896;2022-12-18T11:01:19;102068.22;;;-2.68;100.00
72959;BME280;60008;50.826;6.896;2022-12-18T11:04:08;102060.91;;;-2.83;100.00
72959;BME280;60008;50.826;6.896;2022-12-18T11:07:00;102058.88;;;-2.44;100.00
72959;BME280;60008;50.826;6.896;2022-12-18T11:09:59;102058.16;;;-2.78;100.00
72959;BME280;60008;50.826;6.896;2022-12-18T11:12:45;102053.59;;;-2.70;100.00
72959;BME280;60008;50.826;6.896;2022-12-18T11:15:30;102056.03;;;-2.64;100.00
72959;BME280;60008;50.826;6.896;2022-12-18T11:18:37;102064.22;;;-2.78;100.00
72959;BME280;60008;50.826;6.896;2022-12-18T11:21:22;102066.09;;;-2.84;100.00
72959;BME280;60008;50.826;6.896;2022-12-18T11:24:19;102060.91;;;-2.84;100.00
72959;BME280;60008;50.826;6.896;2022-12-18T11:27:15;102049.44;;;-2.76;100.00
72959;BME280;60008;50.826;6.896;2022-12-18T11:30:26;102059.66;;;-2.70;100.00
72959;BME280;60008;50.826;6.896;2022-12-18T11:33:23;102058.72;;;-2.67;100.00
72959;BME280;60008;50.826;6.896;2022-12-18T11:36:09;102046.53;;;-2.65;100.00
72959;BME280;60008;50.826;6.896;2022-12-18T11:38:55;102039.97;;;-2.48;100.00
72959;BME280;60008;50.826;6.896;2022-12-18T11:41:52;102042.34;;;-2.69;100.00
72959;BME280;60008;50.826;6.896;2022-12-18T11:45:00;102036.25;;;-2.68;100.00
72959;BME280;60008;50.826;6.896;2022-12-18T11:48:01;102024.06;;;-2.66;100.00
72959;BME280;60008;50.826;6.896;2022-12-18T11:50:55;102036.59;;;-2.51;100.00
72959;BME280;60008;50.826;6.896;2022-12-18T11:53:41;102030.38;;;-2.46;100.00
72959;BME280;60008;50.826;6.896;2022-12-18T12:05:28;101999.97;;;-2.70;100.00
72959;BME280;60008;50.826;6.896;2022-12-18T12:11:35;101996.72;;;-2.76;100.00
72959;BME280;60008;50.826;6.896;2022-12-18T12:15:16;101994.91;;;-2.74;100.00
72959;BME280;60008;50.826;6.896;2022-12-18T12:17:50;101989.00;;;-2.79;100.00
72959;BME280;60008;50.826;6.896;2022-12-18T12:21:05;101989.59;;;-2.70;100.00
72959;BME280;60008;50.826;6.896;2022-12-18T12:24:18;101977.59;;;-2.74;100.00
72959;BME280;60008;50.826;6.896;2022-12-18T12:30:36;101966.34;;;-2.73;100.00
72959;BME280;60008;50.826;6.896;2022-12-18T12:36:39;101967.34;;;-2.49;100.00
72959;BME280;60008;50.826;6.896;2022-12-18T12:39:32;101969.72;;;-2.69;100.00
72959;BME280;60008;50.826;6.896;2022-12-18T12:42:29;101968.75;;;-2.67;100.00
72959;BME280;60008;50.826;6.896;2022-12-18T12:46:05;101982.72;;;-2.71;100.00
72959;BME280;60008;50.826;6.896;2022-12-18T12:48:55;101984.63;;;-2.48;100.00
72959;BME280;60008;50.826;6.896;2022-12-18T12:51:43;101988.50;;;-2.63;100.00
72959;BME280;60008;50.826;6.896;2022-12-18T12:54:32;101971.28;;;-2.64;100.00
72959;BME280;60008;50.826;6.896;2022-12-18T12:57:30;101969.47;;;-2.62;100.00
72959;BME280;60008;50.826;6.896;2022-12-18T13:00:19;101955.69;;;-2.64;100.00
72959;BME280;60008;50.826;6.896;2022-12-18T13:03:12;101959.78;;;-2.57;100.00
72959;BME280;60008;50.826;6.896;2022-12-18T13:06:29;101953.81;;;-2.59;100.00
72959;BME280;60008;50.826;6.896;2022-12-18T13:09:17;101977.53;;;-2.43;100.00
72959;BME280;60008;50.826;6.896;2022-12-18T13:12:04;101970.00;;;-2.51;100.00
72959;BME280;60008;50.826;6.896;2022-12-18T13:15:49;101974.09;;;-2.44;100.00
72959;BME280;60008;50.826;6.896;2022-12-18T13:18:49;101961.97;;;-2.43;100.00
72959;BME280;60008;50.826;6.896;2022-12-18T13:21:34;101951.22;;;-2.59;100.00
72959;BME280;60008;50.826;6.896;2022-12-18T13:24:25;101941.53;;;-2.54;100.00
72959;BME280;60008;50.826;6.896;2022-12-18T13:48:55;101937.47;;;-2.34;100.00
72959;BME280;60008;50.826;6.896;2022-12-18T13:51:46;101934.63;;;-2.27;100.00
72959;BME280;60008;50.826;6.896;2022-12-18T13:54:39;101927.22;;;-2.39;100.00
72959;BME280;60008;50.826;6.896;2022-12-18T13:57:35;101929.63;;;-2.33;100.00
72959;BME280;60008;50.826;6.896;2022-12-18T14:00:25;101925.63;;;-2.43;100.00
72959;BME280;60008;50.826;6.896;2022-12-18T14:03:24;101912.69;;;-2.45;100.00
72959;BME280;60008;50.826;6.896;2022-12-18T14:06:11;101918.63;;;-2.41;100.00
72959;BME280;60008;50.826;6.896;2022-12-18T14:08:59;101915.63;;;-2.55;100.00
72959;BME280;60008;50.826;6.896;2022-12-18T14:11:49;101909.59;;;-2.56;100.00
72959;BME280;60008;50.826;6.896;2022-12-18T14:14:35;101901.94;;;-2.60;100.00
72959;BME280;60008;50.826;6.896;2022-12-18T14:17:22;101910.75;;;-2.64;100.00
72959;BME280;60008;50.826;6.896;2022-12-18T14:20:14;101913.97;;;-2.58;100.00
72959;BME280;60008;50.826;6.896;2022-12-18T14:23:00;101922.53;;;-2.54;100.00
72959;BME280;60008;50.826;6.896;2022-12-18T14:25:46;101914.63;;;-2.51;100.00
72959;BME280;60008;50.826;6.896;2022-12-18T14:28:31;101914.69;;;-2.53;100.00
72959;BME280;60008;50.826;6.896;2022-12-18T14:31:18;101918.19;;;-2.54;100.00
72959;BME280;60008;50.826;6.896;2022-12-18T14:34:04;101910.66;;;-2.61;100.00
72959;BME280;60008;50.826;6.896;2022-12-18T14:36:52;101913.25;;;-2.61;100.00
72959;BME280;60008;50.826;6.896;2022-12-18T14:39:38;101897.78;;;-2.64;100.00
72959;BME280;60008;50.826;6.896;2022-12-18T14:42:24;101894.66;;;-2.75;100.00
72959;BME280;60008;50.826;6.896;2022-12-18T14:45:44;101889.31;;;-2.71;100.00
72959;BME280;60008;50.826;6.896;2022-12-18T14:48:41;101890.25;;;-2.72;100.00
72959;BME280;60008;50.826;6.896;2022-12-18T14:51:28;101903.16;;;-2.70;100.00
72959;BME280;60008;50.826;6.896;2022-12-18T14:54:16;101904.97;;;-2.74;100.00
72959;BME280;60008;50.826;6.896;2022-12-18T15:00:05;101906.06;;;-2.81;100.00
72959;BME280;60008;50.826;6.896;2022-12-18T15:02:54;101895.69;;;-2.81;100.00
72959;BME280;60008;50.826;6.896;2022-12-18T15:05:40;101902.53;;;-2.78;100.00
72959;BME280;60008;50.826;6.896;2022-12-18T15:08:34;101894.94;;;-2.84;100.00
72959;BME280;60008;50.826;6.896;2022-12-18T15:11:44;101884.47;;;-2.81;100.00
72959;BME280;60008;50.826;6.896;2022-12-18T15:17:24;101880.16;;;-2.82;100.00
72959;BME280;60008;50.826;6.896;2022-12-18T15:20:10;101879.38;;;-2.84;100.00
72959;BME280;60008;50.826;6.896;2022-12-18T15:22:55;101882.91;;;-2.87;100.00
72959;BME280;60008;50.826;6.896;2022-12-18T15:25:40;101886.38;;;-2.86;100.00
72959;BME280;60008;50.826;6.896;2022-12-18T15:28:32;101889.94;;;-2.90;100.00
72959;BME280;60008;50.826;6.896;2022-12-18T15:31:33;101881.28;;;-2.89;100.00
72959;BME280;60008;50.826;6.896;2022-12-18T15:34:23;101876.00;;;-2.86;100.00